sensor_id;sensor_type;location;lat;lon;timestamp;pressure;altitude;pressure_sealevel;temperature;humidity
34065;BME280;20339;49.754;20.158;2023-02-23T00:00:43;96715.63;;;-1.09;85.94
34065;BME280;20339;49.754;20.158;2023-02-23T00:03:18;96717.66;;;-1.10;85.72
34065;BME280;20339;49.754;20.158;2023-02-23T00:05:49;96712.94;;;-1.16;85.60
34065;BME280;20339;49.754;20.158;2023-02-23T00:08:20;96712.35;;;-1.21;85.64
34065;BME280;20339;49.754;20.158;2023-02-23T00:10:52;96712.55;;;-1.23;85.55
34065;BME280;20339;49.754;20.158;2023-02-23T00:13:27;96712.59;;;-1.22;85.69
34065;BME280;20339;49.754;20.158;2023-02-23T00:15:58;96711.77;;;-1.19;85.75
34065;BME280;20339;49.754;20.158;2023-02-23T00:18:33;96709.23;;;-1.20;86.03
34065;BME280;20339;49.754;20.158;2023-02-23T00:21:18;96708.98;;;-1.28;85.95
34065;BME280;20339;49.754;20.158;2023-02-23T00:23:50;96705.84;;;-1.35;86.24
34065;BME280;20339;49.754;20.158;2023-02-23T00:26:23;96702.91;;;-1.34;86.54
34065;BME280;20339;49.754;20.158;2023-02-23T00:28:54;96701.59;;;-1.34;86.55
34065;BME280;20339;49.754;20.158;2023-02-23T00:31:27;96704.14;;;-1.30;86.78
34065;BME280;20339;49.754;20.158;2023-02-23T00:34:00;96707.23;;;-1.27;86.58
34065;BME280;20339;49.754;20.158;2023-02-23T00:36:34;96705.94;;;-1.29;86.81
34065;BME280;20339;49.754;20.158;2023-02-23T00:39:06;96704.30;;;-1.31;86.64
34065;BME280;20339;49.754;20.158;2023-02-23T00:41:48;96706.27;;;-1.34;86.84
34065;BME280;20339;49.754;20.158;2023-02-23T00:44:22;96702.19;;;-1.33;87.02
34065;BME280;20339;49.754;20.158;2023-02-23T00:46:53;96704.94;;;-1.29;87.12
34065;BME280;20339;49.754;20.158;2023-02-23T00:49:24;96703.95;;;-1.29;87.20
34065;BME280;20339;49.754;20.158;2023-02-23T00:51:56;96704.71;;;-1.36;86.69
34065;BME280;20339;49.754;20.158;2023-02-23T00:54:26;96704.11;;;-1.46;87.10
34065;BME280;20339;49.754;20.158;2023-02-23T00:56:58;96702.75;;;-1.55;86.87
34065;BME280;20339;49.754;20.158;2023-02-23T00:59:29;96703.95;;;-1.55;87.43
34065;BME280;20339;49.754;20.158;2023-02-23T01:02:00;96699.52;;;-1.48;87.95
34065;BME280;20339;49.754;20.158;2023-02-23T01:04:31;96700.98;;;-1.41;87.88
34065;BME280;20339;49.754;20.158;2023-02-23T01:07:02;96697.59;;;-1.36;87.89
34065;BME280;20339;49.754;20.158;2023-02-23T01:09:35;96700.35;;;-1.39;87.56
34065;BME280;20339;49.754;20.158;2023-02-23T01:12:07;96703.15;;;-1.47;87.19
34065;BME280;20339;49.754;20.158;2023-02-23T01:14:38;96703.54;;;-1.56;87.04
34065;BME280;20339;49.754;20.158;2023-02-23T01:17:10;96704.21;;;-1.67;87.00
34065;BME280;20339;49.754;20.158;2023-02-23T01:19:41;96702.31;;;-1.71;86.90
34065;BME280;20339;49.754;20.158;2023-02-23T01:22:13;96698.40;;;-1.70;86.97
34065;BME280;20339;49.754;20.158;2023-02-23T01:24:44;96697.77;;;-1.68;86.99
34065;BME280;20339;49.754;20.158;2023-02-23T01:27:15;96697.70;;;-1.63;87.09
34065;BME280;20339;49.754;20.158;2023-02-23T01:29:46;96691.87;;;-1.60;87.24
34065;BME280;20339;49.754;20.158;2023-02-23T01:32:17;96691.02;;;-1.57;87.43
34065;BME280;20339;49.754;20.158;2023-02-23T01:34:48;96691.15;;;-1.55;87.34
34065;BME280;20339;49.754;20.158;2023-02-23T01:37:19;96686.27;;;-1.55;87.24
34065;BME280;20339;49.754;20.158;2023-02-23T01:39:50;96685.08;;;-1.55;87.29
34065;BME280;20339;49.754;20.158;2023-02-23T01:42:21;96683.86;;;-1.56;87.09
34065;BME280;20339;49.754;20.158;2023-02-23T01:45:20;96681.52;;;-1.54;87.32
34065;BME280;20339;49.754;20.158;2023-02-23T01:47:55;96679.11;;;-1.49;87.65
34065;BME280;20339;49.754;20.158;2023-02-23T01:50:28;96675.88;;;-1.51;87.72
34065;BME280;20339;49.754;20.158;2023-02-23T01:53:00;96673.31;;;-1.55;87.60
34065;BME280;20339;49.754;20.158;2023-02-23T01:55:32;96673.50;;;-1.59;87.63
34065;BME280;20339;49.754;20.158;2023-02-23T01:58:09;96669.23;;;-1.62;87.62
34065;BME280;20339;49.754;20.158;2023-02-23T02:00:50;96665.20;;;-1.62;87.97
34065;BME280;20339;49.754;20.158;2023-02-23T02:03:26;96666.63;;;-1.56;88.24
34065;BME280;20339;49.754;20.158;2023-02-23T02:06:01;96665.93;;;-1.54;88.35
34065;BME280;20339;49.754;20.158;2023-02-23T02:08:34;96664.23;;;-1.57;88.21
34065;BME280;20339;49.754;20.158;2023-02-23T02:11:13;96661.83;;;-1.59;88.33
34065;BME280;20339;49.754;20.158;2023-02-23T02:14:00;96662.38;;;-1.56;88.35
34065;BME280;20339;49.754;20.158;2023-02-23T02:22:59;96662.96;;;-1.51;88.36
34065;BME280;20339;49.754;20.158;2023-02-23T02:25:45;96660.03;;;-1.49;88.17
34065;BME280;20339;49.754;20.158;2023-02-23T02:28:50;96659.83;;;-1.47;88.06
34065;BME280;20339;49.754;20.158;2023-02-23T02:37:39;96653.70;;;-1.73;87.68
34065;BME280;20339;49.754;20.158;2023-02-23T02:40:23;96653.03;;;-1.76;87.94
34065;BME280;20339;49.754;20.158;2023-02-23T02:43:02;96653.84;;;-1.78;88.26
34065;BME280;20339;49.754;20.158;2023-02-23T02:45:47;96648.67;;;-1.81;88.26
34065;BME280;20339;49.754;20.158;2023-02-23T02:48:28;96653.22;;;-1.88;88.25
34065;BME280;20339;49.754;20.158;2023-02-23T02:51:06;96648.66;;;-1.94;88.00
34065;BME280;20339;49.754;20.158;2023-02-23T02:53:46;96644.52;;;-2.00;88.23
34065;BME280;20339;49.754;20.158;2023-02-23T02:56:22;96644.70;;;-2.04;88.22
34065;BME280;20339;49.754;20.158;2023-02-23T02:58:55;96642.13;;;-2.02;88.49
34065;BME280;20339;49.754;20.158;2023-02-23T03:01:30;96643.93;;;-1.98;88.46
34065;BME280;20339;49.754;20.158;2023-02-23T03:04:24;96643.39;;;-1.95;88.74
34065;BME280;20339;49.754;20.158;2023-02-23T03:07:18;96642.75;;;-1.92;88.85
34065;BME280;20339;49.754;20.158;2023-02-23T03:10:13;96643.74;;;-1.90;88.62
34065;BME280;20339;49.754;20.158;2023-02-23T03:13:16;96640.62;;;-1.86;88.63
34065;BME280;20339;49.754;20.158;2023-02-23T03:16:18;96639.27;;;-1.86;88.70
34065;BME280;20339;49.754;20.158;2023-02-23T03:19:14;96638.23;;;-1.89;88.19
34065;BME280;20339;49.754;20.158;2023-02-23T03:22:15;96638.31;;;-1.88;88.48
34065;BME280;20339;49.754;20.158;2023-02-23T03:25:05;96637.66;;;-1.86;88.53
34065;BME280;20339;49.754;20.158;2023-02-23T03:28:05;96640.52;;;-1.84;88.60
34065;BME280;20339;49.754;20.158;2023-02-23T03:31:03;96637.64;;;-1.81;88.62
34065;BME280;20339;49.754;20.158;2023-02-23T03:34:07;96637.31;;;-1.87;88.20
34065;BME280;20339;49.754;20.158;2023-02-23T03:37:02;96636.95;;;-1.95;88.25
34065;BME280;20339;49.754;20.158;2023-02-23T03:40:06;96639.45;;;-1.98;88.45
34065;BME280;20339;49.754;20.158;2023-02-23T03:42:58;96636.98;;;-2.04;88.53
34065;BME280;20339;49.754;20.158;2023-02-23T03:45:49;96640.98;;;-2.04;88.73
34065;BME280;20339;49.754;20.158;2023-02-23T03:48:40;96636.73;;;-2.05;89.13
34065;BME280;20339;49.754;20.158;2023-02-23T03:51:32;96637.14;;;-2.05;89.17
34065;BME280;20339;49.754;20.158;2023-02-23T03:54:28;96633.41;;;-2.02;89.53
34065;BME280;20339;49.754;20.158;2023-02-23T03:57:20;96629.66;;;-1.99;89.55
34065;BME280;20339;49.754;20.158;2023-02-23T04:00:13;96631.56;;;-1.96;89.92
34065;BME280;20339;49.754;20.158;2023-02-23T04:03:05;96631.27;;;-1.93;90.15
34065;BME280;20339;49.754;20.158;2023-02-23T04:05:56;96629.36;;;-1.90;90.21
34065;BME280;20339;49.754;20.158;2023-02-23T04:08:46;96631.28;;;-1.91;89.89
34065;BME280;20339;49.754;20.158;2023-02-23T04:11:41;96629.00;;;-1.93;89.77
34065;BME280;20339;49.754;20.158;2023-02-23T04:14:37;96628.13;;;-1.92;89.65
34065;BME280;20339;49.754;20.158;2023-02-23T04:17:09;96626.20;;;-1.91;89.73
34065;BME280;20339;49.754;20.158;2023-02-23T04:19:49;96623.48;;;-1.87;89.69
34065;BME280;20339;49.754;20.158;2023-02-23T04:22:20;96624.00;;;-1.87;89.58
34065;BME280;20339;49.754;20.158;2023-02-23T04:24:52;96625.80;;;-1.89;89.55
34065;BME280;20339;49.754;20.158;2023-02-23T04:27:23;96625.20;;;-1.93;89.12
34065;BME280;20339;49.754;20.158;2023-02-23T04:29:54;96628.88;;;-1.97;88.97
34065;BME280;20339;49.754;20.158;2023-02-23T04:32:25;96629.59;;;-2.05;88.82
34065;BME280;20339;49.754;20.158;2023-02-23T04:34:56;96627.19;;;-2.06;89.05
34065;BME280;20339;49.754;20.158;2023-02-23T04:37:27;96628.91;;;-2.04;89.39
34065;BME280;20339;49.754;20.158;2023-02-23T04:39:59;96624.08;;;-1.96;90.06
34065;BME280;20339;49.754;20.158;2023-02-23T04:42:30;96624.73;;;-1.78;90.90
34065;BME280;20339;49.754;20.158;2023-02-23T04:45:02;96623.56;;;-1.72;90.77
34065;BME280;20339;49.754;20.158;2023-02-23T04:47:33;96625.40;;;-1.58;91.43
34065;BME280;20339;49.754;20.158;2023-02-23T04:50:06;96626.58;;;-1.40;91.92
34065;BME280;20339;49.754;20.158;2023-02-23T04:52:37;96628.38;;;-1.34;91.66
34065;BME280;20339;49.754;20.158;2023-02-23T04:55:12;96622.73;;;-1.32;91.59
34065;BME280;20339;49.754;20.158;2023-02-23T04:57:45;96625.81;;;-1.31;91.20
34065;BME280;20339;49.754;20.158;2023-02-23T05:00:17;96624.77;;;-1.31;91.28
34065;BME280;20339;49.754;20.158;2023-02-23T05:02:48;96621.00;;;-1.31;91.29
34065;BME280;20339;49.754;20.158;2023-02-23T05:05:20;96619.13;;;-1.27;91.67
34065;BME280;20339;49.754;20.158;2023-02-23T05:07:51;96619.95;;;-1.23;91.69
34065;BME280;20339;49.754;20.158;2023-02-23T05:10:23;96617.21;;;-1.17;91.55
34065;BME280;20339;49.754;20.158;2023-02-23T05:12:55;96617.36;;;-1.15;91.50
34065;BME280;20339;49.754;20.158;2023-02-23T05:15:27;96618.14;;;-1.12;91.38
34065;BME280;20339;49.754;20.158;2023-02-23T05:17:59;96619.42;;;-1.12;91.26
34065;BME280;20339;49.754;20.158;2023-02-23T05:20:30;96617.80;;;-1.09;91.58
34065;BME280;20339;49.754;20.158;2023-02-23T05:23:01;96617.11;;;-1.05;91.48
34065;BME280;20339;49.754;20.158;2023-02-23T05:25:32;96616.23;;;-1.04;91.73
34065;BME280;20339;49.754;20.158;2023-02-23T05:28:04;96620.27;;;-1.04;91.27
34065;BME280;20339;49.754;20.158;2023-02-23T05:30:38;96621.80;;;-1.06;91.22
34065;BME280;20339;49.754;20.158;2023-02-23T05:33:09;96622.77;;;-1.08;91.06
34065;BME280;20339;49.754;20.158;2023-02-23T05:35:42;96623.58;;;-1.12;91.14
34065;BME280;20339;49.754;20.158;2023-02-23T05:38:22;96629.64;;;-1.13;90.86
34065;BME280;20339;49.754;20.158;2023-02-23T05:40:54;96630.91;;;-1.12;91.17
34065;BME280;20339;49.754;20.158;2023-02-23T05:43:25;96629.13;;;-1.08;91.19
34065;BME280;20339;49.754;20.158;2023-02-23T05:45:56;96629.66;;;-1.10;91.09
34065;BME280;20339;49.754;20.158;2023-02-23T05:48:28;96627.81;;;-1.11;91.67
34065;BME280;20339;49.754;20.158;2023-02-23T05:51:03;96627.98;;;-0.99;91.87
34065;BME280;20339;49.754;20.158;2023-02-23T05:53:34;96628.32;;;-0.92;92.00
34065;BME280;20339;49.754;20.158;2023-02-23T05:56:10;96633.42;;;-0.87;91.90
34065;BME280;20339;49.754;20.158;2023-02-23T05:58:41;96630.20;;;-0.80;91.46
34065;BME280;20339;49.754;20.158;2023-02-23T06:01:12;96635.89;;;-0.71;91.58
34065;BME280;20339;49.754;20.158;2023-02-23T06:03:44;96634.48;;;-0.59;91.81
34065;BME280;20339;49.754;20.158;2023-02-23T06:06:16;96632.14;;;-0.44;91.74
34065;BME280;20339;49.754;20.158;2023-02-23T06:08:48;96633.02;;;-0.29;91.35
34065;BME280;20339;49.754;20.158;2023-02-23T06:11:20;96631.72;;;-0.17;91.24
34065;BME280;20339;49.754;20.158;2023-02-23T06:13:52;96637.33;;;-0.05;91.22
34065;BME280;20339;49.754;20.158;2023-02-23T06:16:23;96632.46;;;0.04;90.70
34065;BME280;20339;49.754;20.158;2023-02-23T06:18:54;96632.84;;;0.13;90.73
34065;BME280;20339;49.754;20.158;2023-02-23T06:21:25;96633.84;;;0.21;90.72
34065;BME280;20339;49.754;20.158;2023-02-23T06:23:56;96637.79;;;0.29;90.23
34065;BME280;20339;49.754;20.158;2023-02-23T06:26:29;96633.70;;;0.42;90.07
34065;BME280;20339;49.754;20.158;2023-02-23T06:29:00;96631.65;;;0.57;89.96
34065;BME280;20339;49.754;20.158;2023-02-23T06:31:32;96630.74;;;0.69;89.43
34065;BME280;20339;49.754;20.158;2023-02-23T06:34:03;96632.67;;;0.77;89.40
34065;BME280;20339;49.754;20.158;2023-02-23T06:36:34;96633.27;;;0.91;89.24
34065;BME280;20339;49.754;20.158;2023-02-23T06:39:05;96633.95;;;0.98;88.90
34065;BME280;20339;49.754;20.158;2023-02-23T06:41:36;96637.36;;;1.14;89.08
34065;BME280;20339;49.754;20.158;2023-02-23T06:44:07;96635.42;;;1.33;88.85
34065;BME280;20339;49.754;20.158;2023-02-23T06:46:38;96637.52;;;1.50;88.57
34065;BME280;20339;49.754;20.158;2023-02-23T06:49:11;96634.96;;;1.70;88.32
34065;BME280;20339;49.754;20.158;2023-02-23T06:51:42;96632.70;;;1.82;87.84
34065;BME280;20339;49.754;20.158;2023-02-23T06:54:13;96633.83;;;1.95;87.51
34065;BME280;20339;49.754;20.158;2023-02-23T06:56:44;96635.68;;;2.08;87.08
34065;BME280;20339;49.754;20.158;2023-02-23T06:59:15;96633.02;;;2.08;85.62
34065;BME280;20339;49.754;20.158;2023-02-23T07:01:47;96634.45;;;2.10;85.98
34065;BME280;20339;49.754;20.158;2023-02-23T07:04:18;96634.05;;;2.34;86.19
34065;BME280;20339;49.754;20.158;2023-02-23T07:06:49;96634.57;;;2.55;86.03
34065;BME280;20339;49.754;20.158;2023-02-23T07:09:20;96634.17;;;2.64;85.35
34065;BME280;20339;49.754;20.158;2023-02-23T07:11:51;96634.76;;;2.86;85.08
34065;BME280;20339;49.754;20.158;2023-02-23T07:14:22;96633.73;;;3.04;84.22
34065;BME280;20339;49.754;20.158;2023-02-23T07:16:53;96630.70;;;3.21;84.04
34065;BME280;20339;49.754;20.158;2023-02-23T07:19:24;96630.05;;;3.44;83.81
34065;BME280;20339;49.754;20.158;2023-02-23T07:21:55;96627.98;;;3.78;83.12
34065;BME280;20339;49.754;20.158;2023-02-23T07:24:26;96627.52;;;3.85;82.12
34065;BME280;20339;49.754;20.158;2023-02-23T07:26:58;96624.87;;;4.01;81.34
34065;BME280;20339;49.754;20.158;2023-02-23T07:29:29;96625.48;;;4.03;80.43
34065;BME280;20339;49.754;20.158;2023-02-23T07:32:00;96630.36;;;4.21;80.59
34065;BME280;20339;49.754;20.158;2023-02-23T07:34:31;96627.81;;;4.38;79.63
34065;BME280;20339;49.754;20.158;2023-02-23T07:37:03;96625.98;;;4.62;79.87
34065;BME280;20339;49.754;20.158;2023-02-23T07:39:34;96625.54;;;4.93;78.63
34065;BME280;20339;49.754;20.158;2023-02-23T07:42:05;96626.02;;;5.10;77.92
34065;BME280;20339;49.754;20.158;2023-02-23T07:44:37;96628.62;;;5.44;78.06
34065;BME280;20339;49.754;20.158;2023-02-23T07:47:08;96622.71;;;5.83;77.43
34065;BME280;20339;49.754;20.158;2023-02-23T07:49:40;96622.52;;;6.10;76.39
34065;BME280;20339;49.754;20.158;2023-02-23T07:52:11;96622.00;;;6.27;75.19
34065;BME280;20339;49.754;20.158;2023-02-23T07:54:42;96621.99;;;6.45;74.62
34065;BME280;20339;49.754;20.158;2023-02-23T07:57:16;96618.85;;;6.60;73.25
34065;BME280;20339;49.754;20.158;2023-02-23T07:59:47;96620.35;;;6.80;73.36
34065;BME280;20339;49.754;20.158;2023-02-23T08:02:18;96622.12;;;6.93;71.91
34065;BME280;20339;49.754;20.158;2023-02-23T08:04:49;96622.80;;;6.82;70.79
34065;BME280;20339;49.754;20.158;2023-02-23T08:07:23;96625.02;;;6.69;70.13
34065;BME280;20339;49.754;20.158;2023-02-23T08:09:54;96625.98;;;6.72;70.86
34065;BME280;20339;49.754;20.158;2023-02-23T08:12:25;96625.54;;;6.90;69.98
34065;BME280;20339;49.754;20.158;2023-02-23T08:14:56;96624.39;;;6.86;69.32
34065;BME280;20339;49.754;20.158;2023-02-23T08:17:28;96626.17;;;6.92;68.41
34065;BME280;20339;49.754;20.158;2023-02-23T08:19:59;96619.36;;;6.80;67.66
34065;BME280;20339;49.754;20.158;2023-02-23T08:22:30;96624.03;;;6.93;67.96
34065;BME280;20339;49.754;20.158;2023-02-23T08:25:01;96626.48;;;6.99;66.85
34065;BME280;20339;49.754;20.158;2023-02-23T08:27:35;96624.00;;;7.25;67.08
34065;BME280;20339;49.754;20.158;2023-02-23T08:30:09;96629.92;;;7.54;66.60
34065;BME280;20339;49.754;20.158;2023-02-23T08:32:40;96626.30;;;7.70;65.97
34065;BME280;20339;49.754;20.158;2023-02-23T08:35:12;96625.95;;;7.95;66.18
34065;BME280;20339;49.754;20.158;2023-02-23T08:37:43;96620.33;;;8.13;65.30
34065;BME280;20339;49.754;20.158;2023-02-23T08:40:15;96622.39;;;8.17;64.99
34065;BME280;20339;49.754;20.158;2023-02-23T08:42:47;96622.27;;;8.09;65.16
34065;BME280;20339;49.754;20.158;2023-02-23T08:45:21;96623.08;;;8.16;64.62
34065;BME280;20339;49.754;20.158;2023-02-23T08:47:52;96616.92;;;8.00;63.57
34065;BME280;20339;49.754;20.158;2023-02-23T08:50:24;96624.58;;;7.61;63.96
34065;BME280;20339;49.754;20.158;2023-02-23T08:52:55;96624.02;;;7.39;63.74
34065;BME280;20339;49.754;20.158;2023-02-23T08:55:26;96622.55;;;7.30;64.83
34065;BME280;20339;49.754;20.158;2023-02-23T08:57:58;96623.52;;;7.33;64.43
34065;BME280;20339;49.754;20.158;2023-02-23T09:00:29;96622.46;;;7.14;64.04
34065;BME280;20339;49.754;20.158;2023-02-23T09:03:00;96620.37;;;6.99;65.68
34065;BME280;20339;49.754;20.158;2023-02-23T09:05:31;96619.41;;;6.80;65.11
34065;BME280;20339;49.754;20.158;2023-02-23T09:08:03;96617.11;;;6.60;65.74
34065;BME280;20339;49.754;20.158;2023-02-23T09:10:34;96614.34;;;6.37;65.77
34065;BME280;20339;49.754;20.158;2023-02-23T09:13:05;96615.53;;;6.17;67.10
34065;BME280;20339;49.754;20.158;2023-02-23T09:15:36;96617.57;;;6.20;67.63
34065;BME280;20339;49.754;20.158;2023-02-23T09:18:10;96618.02;;;6.07;67.61
34065;BME280;20339;49.754;20.158;2023-02-23T09:20:43;96622.41;;;5.98;68.41
34065;BME280;20339;49.754;20.158;2023-02-23T09:23:15;96620.90;;;6.05;69.33
34065;BME280;20339;49.754;20.158;2023-02-23T09:25:46;96621.12;;;6.11;68.86
34065;BME280;20339;49.754;20.158;2023-02-23T09:28:18;96618.34;;;6.12;69.48
34065;BME280;20339;49.754;20.158;2023-02-23T09:30:50;96620.67;;;6.16;69.44
34065;BME280;20339;49.754;20.158;2023-02-23T09:33:21;96620.39;;;6.07;69.14
34065;BME280;20339;49.754;20.158;2023-02-23T09:35:52;96618.41;;;5.97;69.40
34065;BME280;20339;49.754;20.158;2023-02-23T09:38:23;96624.14;;;5.97;69.97
34065;BME280;20339;49.754;20.158;2023-02-23T09:40:54;96621.04;;;6.03;69.77
34065;BME280;20339;49.754;20.158;2023-02-23T09:43:29;96618.68;;;6.09;70.03
34065;BME280;20339;49.754;20.158;2023-02-23T09:46:10;96619.48;;;6.17;70.48
34065;BME280;20339;49.754;20.158;2023-02-23T09:48:44;96622.63;;;6.32;70.41
34065;BME280;20339;49.754;20.158;2023-02-23T09:51:18;96619.65;;;6.48;70.16
34065;BME280;20339;49.754;20.158;2023-02-23T09:53:52;96620.56;;;6.58;70.51
34065;BME280;20339;49.754;20.158;2023-02-23T09:56:30;96617.82;;;6.73;70.25
34065;BME280;20339;49.754;20.158;2023-02-23T09:59:05;96617.02;;;6.70;69.88
34065;BME280;20339;49.754;20.158;2023-02-23T10:01:51;96618.67;;;6.67;69.77
34065;BME280;20339;49.754;20.158;2023-02-23T10:04:27;96616.61;;;6.79;70.04
34065;BME280;20339;49.754;20.158;2023-02-23T10:07:05;96619.15;;;6.79;69.88
34065;BME280;20339;49.754;20.158;2023-02-23T10:09:52;96621.84;;;6.89;69.79
34065;BME280;20339;49.754;20.158;2023-02-23T10:12:34;96619.48;;;7.07;69.96
34065;BME280;20339;49.754;20.158;2023-02-23T10:15:29;96621.02;;;7.21;70.26
34065;BME280;20339;49.754;20.158;2023-02-23T10:18:13;96614.17;;;7.32;69.44
34065;BME280;20339;49.754;20.158;2023-02-23T10:20:55;96613.98;;;7.40;69.80
34065;BME280;20339;49.754;20.158;2023-02-23T10:23:32;96611.41;;;7.54;69.31
34065;BME280;20339;49.754;20.158;2023-02-23T10:26:04;96610.38;;;7.59;69.44
34065;BME280;20339;49.754;20.158;2023-02-23T10:28:38;96610.67;;;7.67;69.44
34065;BME280;20339;49.754;20.158;2023-02-23T10:31:22;96607.88;;;7.70;69.26
34065;BME280;20339;49.754;20.158;2023-02-23T10:33:59;96610.23;;;7.82;69.54
34065;BME280;20339;49.754;20.158;2023-02-23T10:36:36;96602.80;;;7.88;69.29
34065;BME280;20339;49.754;20.158;2023-02-23T10:39:10;96604.57;;;8.00;69.30
34065;BME280;20339;49.754;20.158;2023-02-23T10:41:43;96598.80;;;8.14;68.94
34065;BME280;20339;49.754;20.158;2023-02-23T10:44:19;96602.34;;;8.18;68.65
34065;BME280;20339;49.754;20.158;2023-02-23T10:46:54;96596.94;;;8.22;68.33
34065;BME280;20339;49.754;20.158;2023-02-23T10:49:31;96598.63;;;8.25;68.34
34065;BME280;20339;49.754;20.158;2023-02-23T10:52:07;96593.12;;;8.35;68.20
34065;BME280;20339;49.754;20.158;2023-02-23T10:54:44;96591.60;;;8.44;67.73
34065;BME280;20339;49.754;20.158;2023-02-23T10:57:27;96590.02;;;8.48;67.82
34065;BME280;20339;49.754;20.158;2023-02-23T11:00:28;96586.92;;;8.56;67.66
34065;BME280;20339;49.754;20.158;2023-02-23T11:03:02;96577.55;;;8.48;67.18
34065;BME280;20339;49.754;20.158;2023-02-23T11:05:49;96577.60;;;8.43;66.84
34065;BME280;20339;49.754;20.158;2023-02-23T11:08:25;96576.16;;;8.35;66.76
34065;BME280;20339;49.754;20.158;2023-02-23T11:11:00;96576.41;;;8.32;66.89
34065;BME280;20339;49.754;20.158;2023-02-23T11:13:38;96571.98;;;8.33;66.96
34065;BME280;20339;49.754;20.158;2023-02-23T11:16:12;96567.70;;;8.32;66.84
34065;BME280;20339;49.754;20.158;2023-02-23T11:18:50;96567.35;;;8.34;67.06
34065;BME280;20339;49.754;20.158;2023-02-23T11:21:26;96564.43;;;8.41;67.07
34065;BME280;20339;49.754;20.158;2023-02-23T11:24:17;96557.45;;;8.38;66.43
34065;BME280;20339;49.754;20.158;2023-02-23T11:26:53;96558.13;;;8.27;67.11
34065;BME280;20339;49.754;20.158;2023-02-23T11:29:31;96559.66;;;8.30;67.20
34065;BME280;20339;49.754;20.158;2023-02-23T11:32:08;96556.88;;;8.41;67.68
34065;BME280;20339;49.754;20.158;2023-02-23T11:34:44;96555.48;;;8.55;67.51
34065;BME280;20339;49.754;20.158;2023-02-23T11:37:23;96550.89;;;8.55;66.99
34065;BME280;20339;49.754;20.158;2023-02-23T11:39:56;96549.27;;;8.54;67.04
34065;BME280;20339;49.754;20.158;2023-02-23T11:42:28;96545.37;;;8.50;66.78
34065;BME280;20339;49.754;20.158;2023-02-23T11:45:13;96544.41;;;8.46;67.03
34065;BME280;20339;49.754;20.158;2023-02-23T11:47:47;96541.65;;;8.60;67.63
34065;BME280;20339;49.754;20.158;2023-02-23T11:50:24;96539.56;;;8.75;67.33
34065;BME280;20339;49.754;20.158;2023-02-23T11:53:04;96537.16;;;8.84;66.81
34065;BME280;20339;49.754;20.158;2023-02-23T11:55:34;96535.13;;;8.93;67.01
34065;BME280;20339;49.754;20.158;2023-02-23T11:58:24;96525.94;;;9.06;66.70
34065;BME280;20339;49.754;20.158;2023-02-23T12:00:58;96530.45;;;9.14;66.29
34065;BME280;20339;49.754;20.158;2023-02-23T12:03:32;96524.78;;;9.19;65.98
34065;BME280;20339;49.754;20.158;2023-02-23T12:06:05;96527.25;;;9.23;66.20
34065;BME280;20339;49.754;20.158;2023-02-23T12:08:41;96524.52;;;9.28;65.97
34065;BME280;20339;49.754;20.158;2023-02-23T12:11:16;96522.45;;;9.28;65.69
34065;BME280;20339;49.754;20.158;2023-02-23T12:13:52;96524.84;;;9.30;65.53
34065;BME280;20339;49.754;20.158;2023-02-23T12:16:28;96519.70;;;9.42;65.80
34065;BME280;20339;49.754;20.158;2023-02-23T12:19:05;96516.39;;;9.57;65.68
34065;BME280;20339;49.754;20.158;2023-02-23T12:21:44;96513.34;;;9.69;65.67
34065;BME280;20339;49.754;20.158;2023-02-23T12:24:21;96511.99;;;9.84;65.63
34065;BME280;20339;49.754;20.158;2023-02-23T12:26:59;96508.33;;;9.86;64.54
34065;BME280;20339;49.754;20.158;2023-02-23T12:29:38;96508.70;;;9.84;64.63
34065;BME280;20339;49.754;20.158;2023-02-23T12:32:14;96506.67;;;9.87;64.38
34065;BME280;20339;49.754;20.158;2023-02-23T12:34:50;96506.44;;;9.91;64.50
34065;BME280;20339;49.754;20.158;2023-02-23T12:37:41;96509.40;;;9.99;64.77
34065;BME280;20339;49.754;20.158;2023-02-23T12:40:18;96501.95;;;10.03;64.39
34065;BME280;20339;49.754;20.158;2023-02-23T12:42:59;96498.51;;;10.08;64.34
34065;BME280;20339;49.754;20.158;2023-02-23T12:45:39;96496.09;;;10.11;64.36
34065;BME280;20339;49.754;20.158;2023-02-23T12:48:23;96496.80;;;10.18;64.01
34065;BME280;20339;49.754;20.158;2023-02-23T12:51:01;96493.15;;;10.18;63.91
34065;BME280;20339;49.754;20.158;2023-02-23T12:53:38;96496.02;;;10.23;63.80
34065;BME280;20339;49.754;20.158;2023-02-23T12:56:26;96492.98;;;10.27;63.73
34065;BME280;20339;49.754;20.158;2023-02-23T13:01:54;96485.46;;;10.33;63.73
34065;BME280;20339;49.754;20.158;2023-02-23T13:04:45;96481.27;;;10.28;63.71
34065;BME280;20339;49.754;20.158;2023-02-23T13:07:21;96480.02;;;10.25;63.93
34065;BME280;20339;49.754;20.158;2023-02-23T13:10:04;96480.55;;;10.31;64.50
34065;BME280;20339;49.754;20.158;2023-02-23T13:12:51;96480.05;;;10.37;64.45
34065;BME280;20339;49.754;20.158;2023-02-23T13:15:33;96474.41;;;10.24;64.11
34065;BME280;20339;49.754;20.158;2023-02-23T13:18:13;96471.30;;;10.21;65.07
34065;BME280;20339;49.754;20.158;2023-02-23T13:20:53;96472.58;;;10.27;65.26
34065;BME280;20339;49.754;20.158;2023-02-23T13:23:30;96471.67;;;10.30;65.25
34065;BME280;20339;49.754;20.158;2023-02-23T13:26:12;96471.84;;;10.28;65.15
34065;BME280;20339;49.754;20.158;2023-02-23T13:28:54;96467.80;;;10.26;64.91
34065;BME280;20339;49.754;20.158;2023-02-23T13:31:30;96464.55;;;10.24;64.81
34065;BME280;20339;49.754;20.158;2023-02-23T13:34:03;96464.92;;;10.23;64.93
34065;BME280;20339;49.754;20.158;2023-02-23T13:36:36;96460.13;;;10.19;65.13
34065;BME280;20339;49.754;20.158;2023-02-23T13:42:23;96457.17;;;10.17;65.53
34065;BME280;20339;49.754;20.158;2023-02-23T13:45:03;96450.38;;;10.13;65.06
34065;BME280;20339;49.754;20.158;2023-02-23T13:47:46;96453.08;;;10.15;65.59
34065;BME280;20339;49.754;20.158;2023-02-23T13:50:25;96449.70;;;10.19;65.83
34065;BME280;20339;49.754;20.158;2023-02-23T13:53:01;96446.55;;;10.20;65.32
34065;BME280;20339;49.754;20.158;2023-02-23T13:55:42;96446.61;;;10.14;64.98
34065;BME280;20339;49.754;20.158;2023-02-23T13:58:18;96446.77;;;10.11;65.47
34065;BME280;20339;49.754;20.158;2023-02-23T14:01:02;96445.77;;;10.20;66.01